Santa Paula, California
Current Conditions -  °F | °C
As of 11:55 PM on Wednesday 28 Jan 2015 (Local Time) from KCMA Reporting Station
Clear Clear  
Wind Chill: 67°   Ceiling: Unl
Heat Index: 67°   Visibility: 10mi
Dew Point: 45°   Wind: 12mph
Humidity: 45%   Direction: 80°E
Pressure: 30.06"   Gusts: NA
Location:  34.35°N, 119.05°W
Report Text: KCMA 290755Z 08010KT 10SM CLR 19/07 A3006 RMK AO2 SLP187 T01940072 402390106
Loading
Personal Weather Stations






























Interactive Weather Map New forecast layout! Learn more

10-Day Weather Forecast

Advertisements
Track Severe Weather on mobile